createdAt,value
2022-07-31T00:00:57.981Z,101097.69
2022-07-31T00:03:26.293Z,101090.94
2022-07-31T00:05:54.565Z,101101.38
2022-07-31T00:08:23.999Z,101097.59
2022-07-31T00:10:52.353Z,101091.66
2022-07-31T00:13:20.579Z,101097.81
2022-07-31T00:16:08.871Z,101090.56
2022-07-31T00:18:37.079Z,101102.13
2022-07-31T00:21:05.692Z,101098.81
2022-07-31T00:23:34.079Z,101107.41
2022-07-31T00:26:02.403Z,101106.91
2022-07-31T00:28:32.398Z,101104.69
2022-07-31T00:31:00.800Z,101102.81
2022-07-31T00:33:29.104Z,101103.25
2022-07-31T00:35:57.433Z,101112.13
2022-07-31T00:38:27.253Z,101106.22
2022-07-31T00:40:56.077Z,101103.97
2022-07-31T00:43:24.478Z,101104.25
2022-07-31T00:46:00.334Z,101100.00
2022-07-31T00:48:29.135Z,101106.63
2022-07-31T00:50:58.265Z,101101.16
2022-07-31T00:53:26.721Z,101097.94
2022-07-31T00:55:55.203Z,101101.97
2022-07-31T00:58:23.452Z,101101.50
2022-07-31T01:00:52.557Z,101095.47
2022-07-31T01:03:21.119Z,101098.94
2022-07-31T01:05:49.603Z,101104.56
2022-07-31T01:08:18.004Z,101111.50
2022-07-31T01:10:59.844Z,101112.19
2022-07-31T01:13:34.114Z,101109.63
2022-07-31T01:16:02.562Z,101120.50
2022-07-31T01:18:35.840Z,101110.66
2022-07-31T01:21:17.524Z,101113.81
2022-07-31T01:24:30.400Z,101116.84
2022-07-31T01:27:05.692Z,101119.41
2022-07-31T01:29:45.521Z,101109.72
2022-07-31T01:32:30.079Z,101117.91
2022-07-31T01:35:17.739Z,101120.59
2022-07-31T01:37:54.999Z,101118.75
2022-07-31T01:40:45.593Z,101117.59
2022-07-31T01:43:23.629Z,101118.88
2022-07-31T01:45:59.062Z,101129.69
2022-07-31T01:48:28.475Z,101127.72
2022-07-31T01:50:59.675Z,101125.66
2022-07-31T01:53:29.436Z,101129.06
2022-07-31T01:56:02.959Z,101131.19
2022-07-31T01:58:38.237Z,101135.31
2022-07-31T02:01:11.289Z,101138.63
2022-07-31T02:03:42.742Z,101129.19
2022-07-31T02:06:16.166Z,101131.16
2022-07-31T02:08:47.682Z,101126.81
2022-07-31T02:11:19.116Z,101127.59
2022-07-31T02:13:50.074Z,101121.28
2022-07-31T02:16:20.635Z,101125.00
2022-07-31T02:18:54.561Z,101131.16
2022-07-31T02:21:23.045Z,101139.53
2022-07-31T02:23:51.290Z,101140.69
2022-07-31T02:26:20.475Z,101144.63
2022-07-31T02:28:50.246Z,101143.50
2022-07-31T02:31:19.784Z,101151.19
2022-07-31T02:33:50.409Z,101143.72
2022-07-31T02:36:22.074Z,101144.09
2022-07-31T02:38:53.860Z,101143.06
2022-07-31T02:41:23.676Z,101142.78
2022-07-31T02:43:52.876Z,101142.97
2022-07-31T02:46:21.920Z,101142.25
2022-07-31T02:48:51.566Z,101143.38
2022-07-31T02:51:20.646Z,101147.31
2022-07-31T02:53:49.035Z,101145.41
2022-07-31T02:56:18.281Z,101149.22
2022-07-31T02:58:46.675Z,101158.59
2022-07-31T03:01:15.433Z,101155.44
2022-07-31T03:03:44.160Z,101152.81
2022-07-31T03:06:12.716Z,101161.25
2022-07-31T03:08:41.056Z,101150.78
2022-07-31T03:11:09.721Z,101161.63
2022-07-31T03:13:39.436Z,101174.84
2022-07-31T03:16:12.483Z,101169.63
2022-07-31T03:18:42.726Z,101172.84
2022-07-31T03:21:13.118Z,101167.00
2022-07-31T03:23:42.875Z,101173.34
2022-07-31T03:26:12.236Z,101177.06
2022-07-31T03:28:40.636Z,101174.66
2022-07-31T03:31:09.116Z,101176.47
2022-07-31T03:33:37.609Z,101190.00
2022-07-31T03:36:07.308Z,101189.50
2022-07-31T03:38:41.125Z,101181.50
2022-07-31T03:41:12.083Z,101188.63
2022-07-31T03:43:43.689Z,101197.00
2022-07-31T03:46:19.523Z,101201.41
2022-07-31T03:48:48.709Z,101208.34
2022-07-31T03:51:17.604Z,101213.72
2022-07-31T03:53:47.290Z,101211.28
2022-07-31T03:56:18.235Z,101217.66
2022-07-31T03:58:49.760Z,101220.28
2022-07-31T04:01:22.439Z,101225.66
2022-07-31T04:04:01.923Z,101241.03
2022-07-31T04:06:30.240Z,101242.69
2022-07-31T04:08:58.715Z,101245.38
2022-07-31T04:11:27.204Z,101245.47
2022-07-31T04:13:55.832Z,101249.09
2022-07-31T04:16:24.476Z,101259.28
2022-07-31T04:18:52.877Z,101266.78
2022-07-31T04:21:21.271Z,101255.34
2022-07-31T04:23:50.401Z,101266.03
2022-07-31T04:26:19.854Z,101266.94
2022-07-31T04:28:55.040Z,101277.53
2022-07-31T04:31:23.517Z,101275.84
2022-07-31T04:33:56.268Z,101284.00
2022-07-31T04:36:29.704Z,101296.63
2022-07-31T04:39:01.037Z,101282.50
2022-07-31T04:41:29.842Z,101284.56
2022-07-31T04:43:59.518Z,101286.38
2022-07-31T04:46:28.315Z,101292.59
2022-07-31T04:48:56.753Z,101293.56
2022-07-31T04:51:25.916Z,101303.44
2022-07-31T04:53:54.391Z,101294.25
2022-07-31T04:56:34.725Z,101302.38
2022-07-31T04:59:06.315Z,101308.78
2022-07-31T05:01:35.887Z,101301.66
2022-07-31T05:04:04.322Z,101299.13
2022-07-31T05:06:47.361Z,101289.28
2022-07-31T05:09:19.601Z,101305.31
2022-07-31T05:11:53.596Z,101296.31
2022-07-31T05:14:23.200Z,101298.19
2022-07-31T05:16:51.842Z,101299.13
2022-07-31T05:19:20.479Z,101295.88
2022-07-31T05:21:54.268Z,101304.09
2022-07-31T05:24:33.016Z,101297.88
2022-07-31T05:27:05.884Z,101302.28
2022-07-31T05:29:35.443Z,101297.38
2022-07-31T05:32:04.007Z,101303.50
2022-07-31T05:34:32.410Z,101301.72
2022-07-31T05:37:04.176Z,101304.56
2022-07-31T05:39:32.756Z,101302.81
2022-07-31T05:42:01.391Z,101298.31
2022-07-31T05:44:30.096Z,101303.44
2022-07-31T05:49:27.972Z,101297.16
2022-07-31T05:51:56.580Z,101289.06
2022-07-31T05:54:24.921Z,101285.63
2022-07-31T05:56:53.116Z,101291.22
2022-07-31T05:59:21.436Z,101279.75
2022-07-31T06:01:50.954Z,101286.81
2022-07-31T06:04:19.354Z,101280.66
2022-07-31T06:06:47.677Z,101287.78
2022-07-31T06:09:16.087Z,101287.59
2022-07-31T06:11:44.314Z,101286.81
2022-07-31T06:14:12.732Z,101296.75
2022-07-31T06:16:40.961Z,101294.00
2022-07-31T06:19:09.216Z,101301.97
2022-07-31T06:21:37.435Z,101298.13
2022-07-31T06:24:06.077Z,101297.03
2022-07-31T06:26:36.476Z,101287.00
2022-07-31T06:29:05.595Z,101291.50
2022-07-31T06:31:34.001Z,101287.34
2022-07-31T06:34:02.401Z,101285.28
2022-07-31T06:36:31.042Z,101281.47
2022-07-31T06:38:59.336Z,101283.03
2022-07-31T06:41:48.127Z,101277.63
2022-07-31T06:44:21.515Z,101284.63
2022-07-31T06:46:50.383Z,101282.66
2022-07-31T06:49:19.402Z,101283.41
2022-07-31T06:51:48.654Z,101277.03
2022-07-31T06:54:16.958Z,101278.66
2022-07-31T06:56:45.680Z,101278.59
2022-07-31T06:59:14.076Z,101281.53
2022-07-31T07:02:02.582Z,101275.63
2022-07-31T07:05:04.507Z,101280.91
2022-07-31T07:07:20.672Z,101280.72
2022-07-31T07:09:48.984Z,101284.28
2022-07-31T07:12:17.642Z,101278.13
2022-07-31T07:14:45.996Z,101284.47
2022-07-31T07:17:14.406Z,101286.97
2022-07-31T07:19:42.883Z,101282.56
2022-07-31T07:22:11.362Z,101288.97
2022-07-31T07:24:39.642Z,101289.81
2022-07-31T07:27:07.921Z,101287.91
2022-07-31T07:29:36.481Z,101278.13
2022-07-31T07:32:05.492Z,101273.63
2022-07-31T07:34:34.235Z,101268.69
2022-07-31T07:37:03.128Z,101262.63
2022-07-31T07:39:33.116Z,101272.31
2022-07-31T07:42:01.711Z,101264.09
2022-07-31T07:44:30.482Z,101259.69
2022-07-31T07:46:58.883Z,101268.69
2022-07-31T07:49:27.606Z,101263.50
2022-07-31T07:51:58.990Z,101255.44
2022-07-31T07:54:28.806Z,101261.53
2022-07-31T07:56:57.762Z,101261.66
2022-07-31T07:59:25.995Z,101259.84
2022-07-31T08:01:54.310Z,101257.88
2022-07-31T08:04:22.718Z,101259.69
2022-07-31T08:06:51.052Z,101261.56
2022-07-31T08:09:22.076Z,101265.94
2022-07-31T08:11:50.717Z,101266.78
2022-07-31T08:14:19.022Z,101262.28
2022-07-31T08:16:47.202Z,101265.75
2022-07-31T08:19:15.516Z,101264.63
2022-07-31T08:21:44.361Z,101272.53
2022-07-31T08:24:13.278Z,101273.25
2022-07-31T08:27:00.161Z,101278.50
2022-07-31T08:29:32.638Z,101271.28
2022-07-31T08:32:06.415Z,101273.75
2022-07-31T08:34:37.026Z,101257.75
2022-07-31T08:37:51.638Z,101259.50
2022-07-31T08:39:57.285Z,101255.84
2022-07-31T08:42:26.361Z,101261.56
2022-07-31T08:44:54.681Z,101257.91
2022-07-31T08:47:27.841Z,101248.91
2022-07-31T08:49:57.874Z,101253.34
2022-07-31T08:52:27.224Z,101248.84
2022-07-31T08:54:56.155Z,101253.34
2022-07-31T08:57:24.956Z,101250.66
2022-07-31T08:59:53.759Z,101260.59
2022-07-31T09:02:22.474Z,101264.09
2022-07-31T09:04:52.755Z,101263.38
2022-07-31T09:07:21.456Z,101268.59
2022-07-31T09:09:51.242Z,101278.19
2022-07-31T09:12:33.920Z,101271.94
2022-07-31T09:15:05.286Z,101277.56
2022-07-31T09:17:37.441Z,101275.13
2022-07-31T09:20:06.726Z,101268.84
2022-07-31T09:22:35.122Z,101278.50
2022-07-31T09:25:19.821Z,101276.69
2022-07-31T09:27:49.601Z,101266.16
2022-07-31T09:30:18.076Z,101259.28
2022-07-31T09:32:46.842Z,101264.88
2022-07-31T09:35:16.635Z,101261.44
2022-07-31T09:37:48.972Z,101260.56
2022-07-31T09:40:21.287Z,101261.56
2022-07-31T09:42:55.316Z,101259.75
2022-07-31T09:45:25.816Z,101256.06
2022-07-31T09:48:17.081Z,101259.00
2022-07-31T09:51:00.648Z,101255.34
2022-07-31T09:53:43.327Z,101259.69
2022-07-31T09:56:13.776Z,101255.19
2022-07-31T09:58:42.980Z,101255.91
2022-07-31T10:01:13.541Z,101254.97
2022-07-31T10:03:42.895Z,101252.50
2022-07-31T10:06:16.309Z,101256.22
2022-07-31T10:08:49.785Z,101249.13
2022-07-31T10:11:23.535Z,101250.00
2022-07-31T10:13:55.695Z,101250.16
2022-07-31T10:16:28.661Z,101244.97
2022-07-31T10:19:02.401Z,101243.13
2022-07-31T10:21:39.521Z,101249.28
2022-07-31T10:24:09.442Z,101248.25
2022-07-31T10:29:32.656Z,101249.28
2022-07-31T10:32:01.411Z,101246.34
2022-07-31T10:34:30.560Z,101250.69
2022-07-31T10:37:11.245Z,101250.84
2022-07-31T10:39:58.486Z,101252.91
2022-07-31T10:42:49.606Z,101247.88
2022-07-31T10:45:18.562Z,101250.56
2022-07-31T10:48:16.093Z,101257.66
2022-07-31T10:50:45.080Z,101254.13
2022-07-31T10:53:16.654Z,101248.91
2022-07-31T10:55:45.756Z,101248.03
2022-07-31T10:58:22.950Z,101249.00
2022-07-31T11:00:54.890Z,101246.59
2022-07-31T11:03:24.266Z,101244.06
2022-07-31T11:06:02.242Z,101242.50
2022-07-31T11:08:55.202Z,101241.56
2022-07-31T11:11:38.401Z,101234.31
2022-07-31T11:14:06.675Z,101238.72
2022-07-31T11:16:35.041Z,101243.13
2022-07-31T11:19:10.640Z,101242.97
2022-07-31T11:21:41.643Z,101233.97
2022-07-31T11:24:22.881Z,101235.63
2022-07-31T11:27:00.956Z,101230.34
2022-07-31T11:30:01.736Z,101234.94
2022-07-31T11:32:26.089Z,101235.03
2022-07-31T11:34:58.810Z,101227.91
2022-07-31T11:37:43.356Z,101228.94
2022-07-31T11:40:15.846Z,101236.03
2022-07-31T11:42:52.548Z,101229.97
2022-07-31T11:45:36.321Z,101230.84
2022-07-31T11:48:12.843Z,101234.63
2022-07-31T11:50:43.200Z,101238.56
2022-07-31T11:53:12.968Z,101239.44
2022-07-31T11:56:00.582Z,101242.91
2022-07-31T11:58:30.641Z,101229.41
2022-07-31T12:01:01.421Z,101234.78
2022-07-31T12:03:37.601Z,101241.88
2022-07-31T12:06:08.645Z,101244.66
2022-07-31T12:08:39.927Z,101245.50
2022-07-31T12:11:12.117Z,101242.69
2022-07-31T12:13:41.767Z,101232.09
2022-07-31T12:16:13.446Z,101238.25
2022-07-31T12:18:52.161Z,101241.72
2022-07-31T12:21:21.793Z,101247.94
2022-07-31T12:23:54.401Z,101234.78
2022-07-31T12:26:30.680Z,101239.44
2022-07-31T12:29:08.160Z,101241.47
2022-07-31T12:31:51.680Z,101234.25
2022-07-31T12:34:41.761Z,101241.25
2022-07-31T12:37:13.123Z,101239.38
2022-07-31T12:40:01.816Z,101242.91
2022-07-31T12:42:40.691Z,101248.34
2022-07-31T12:45:19.697Z,101248.19
2022-07-31T12:47:52.169Z,101243.69
2022-07-31T12:50:25.133Z,101244.50
2022-07-31T12:52:54.417Z,101252.59
2022-07-31T12:55:23.561Z,101253.88
2022-07-31T12:57:52.497Z,101253.94
2022-07-31T13:00:23.665Z,101255.84
2022-07-31T13:02:56.265Z,101256.78
2022-07-31T13:05:25.560Z,101260.47
2022-07-31T13:07:55.003Z,101262.53
2022-07-31T13:10:25.005Z,101265.06
2022-07-31T13:12:57.716Z,101269.34
2022-07-31T13:15:31.886Z,101271.78
2022-07-31T13:18:05.950Z,101276.28
2022-07-31T13:20:34.322Z,101283.28
2022-07-31T13:23:06.640Z,101285.19
2022-07-31T13:25:35.141Z,101278.47
2022-07-31T13:28:03.455Z,101279.34
2022-07-31T13:30:31.776Z,101287.47
2022-07-31T13:33:00.118Z,101290.13
2022-07-31T13:35:29.318Z,101294.69
2022-07-31T13:37:58.360Z,101281.38
2022-07-31T13:40:46.035Z,101289.34
2022-07-31T13:43:14.524Z,101291.94
2022-07-31T13:45:42.750Z,101291.78
2022-07-31T13:48:11.401Z,101297.38
2022-07-31T13:50:43.185Z,101303.69
2022-07-31T13:53:11.958Z,101307.13
2022-07-31T13:55:40.759Z,101310.44
2022-07-31T13:58:09.728Z,101315.66
2022-07-31T14:00:38.195Z,101320.03
2022-07-31T14:03:06.523Z,101320.81
2022-07-31T14:05:40.456Z,101328.69
2022-07-31T14:08:32.888Z,101337.38
2022-07-31T14:10:58.362Z,101334.59
2022-07-31T14:13:27.804Z,101330.28
2022-07-31T14:15:56.445Z,101334.84
2022-07-31T14:18:25.074Z,101341.00
2022-07-31T14:20:53.717Z,101334.47
2022-07-31T14:23:35.265Z,101345.00
2022-07-31T14:26:05.077Z,101342.28
2022-07-31T14:28:33.555Z,101344.88
2022-07-31T14:31:01.790Z,101345.72
2022-07-31T14:33:30.270Z,101348.56
2022-07-31T14:35:58.675Z,101345.81
2022-07-31T14:38:27.796Z,101351.97
2022-07-31T14:40:56.857Z,101355.59
2022-07-31T14:43:25.238Z,101350.13
2022-07-31T14:45:53.715Z,101346.44
2022-07-31T14:48:23.155Z,101351.69
2022-07-31T14:50:51.566Z,101347.13
2022-07-31T14:53:19.775Z,101351.38
2022-07-31T14:55:48.062Z,101347.59
2022-07-31T14:58:16.280Z,101350.91
2022-07-31T15:00:44.925Z,101357.75
2022-07-31T15:03:13.396Z,101356.72
2022-07-31T15:06:41.932Z,101357.50
2022-07-31T15:08:30.911Z,101369.88
2022-07-31T15:10:59.321Z,101369.66
2022-07-31T15:13:27.700Z,101370.03
2022-07-31T15:15:55.950Z,101366.81
2022-07-31T15:18:25.204Z,101367.19
2022-07-31T15:20:55.157Z,101379.31
2022-07-31T15:23:23.530Z,101381.69
2022-07-31T15:25:51.958Z,101374.91
2022-07-31T15:28:20.255Z,101383.56
2022-07-31T15:30:48.605Z,101387.47
2022-07-31T15:33:16.915Z,101383.66
2022-07-31T15:35:45.190Z,101393.47
2022-07-31T15:38:13.637Z,101391.03
2022-07-31T15:40:42.221Z,101383.38
2022-07-31T15:43:10.499Z,101391.69
2022-07-31T15:45:38.756Z,101400.84
2022-07-31T15:48:10.126Z,101406.38
2022-07-31T15:50:38.932Z,101405.41
2022-07-31T15:53:07.250Z,101396.59
2022-07-31T15:55:35.799Z,101400.13
2022-07-31T15:58:04.236Z,101399.28
2022-07-31T16:00:33.402Z,101402.25
2022-07-31T16:03:04.575Z,101403.16
2022-07-31T16:05:36.585Z,101397.59
2022-07-31T16:08:29.639Z,101392.94
2022-07-31T16:10:56.837Z,101399.81
2022-07-31T16:13:26.360Z,101397.59
2022-07-31T16:15:55.158Z,101395.28
2022-07-31T16:18:26.683Z,101391.03
2022-07-31T16:20:55.168Z,101389.41
2022-07-31T16:23:26.692Z,101394.25
2022-07-31T16:25:55.700Z,101392.53
2022-07-31T16:28:24.111Z,101399.03
2022-07-31T16:30:52.596Z,101393.28
2022-07-31T16:33:21.005Z,101389.53
2022-07-31T16:35:49.405Z,101387.69
2022-07-31T16:38:17.802Z,101389.25
2022-07-31T16:40:47.424Z,101392.63
2022-07-31T16:43:49.125Z,101391.72
2022-07-31T16:46:05.718Z,101399.09
2022-07-31T16:48:34.040Z,101394.78
2022-07-31T16:51:02.613Z,101385.03
2022-07-31T16:54:10.677Z,101386.22
2022-07-31T16:56:20.116Z,101386.91
2022-07-31T16:58:52.601Z,101392.28
2022-07-31T17:01:58.848Z,101393.56
2022-07-31T17:04:11.208Z,101392.31
2022-07-31T17:06:39.601Z,101395.69
2022-07-31T17:09:15.828Z,101394.81
2022-07-31T17:11:51.062Z,101393.84
2022-07-31T17:14:21.070Z,101394.81
2022-07-31T17:16:50.685Z,101392.19
2022-07-31T17:19:41.712Z,101404.03
2022-07-31T17:22:11.124Z,101400.22
2022-07-31T17:24:41.061Z,101393.50
2022-07-31T17:27:10.329Z,101386.59
2022-07-31T17:29:39.690Z,101385.38
2022-07-31T17:32:08.280Z,101387.19
2022-07-31T17:34:40.909Z,101389.88
2022-07-31T17:37:09.568Z,101377.28
2022-07-31T17:39:38.470Z,101374.19
2022-07-31T17:42:09.274Z,101386.13
2022-07-31T17:44:39.905Z,101384.69
2022-07-31T17:47:09.170Z,101376.41
2022-07-31T17:49:38.003Z,101369.84
2022-07-31T17:52:06.990Z,101378.59
2022-07-31T17:54:35.487Z,101382.81
2022-07-31T17:57:04.758Z,101365.97
2022-07-31T17:59:33.400Z,101379.69
2022-07-31T18:02:04.651Z,101382.38
2022-07-31T18:04:40.286Z,101374.06
2022-07-31T18:07:10.355Z,101376.97
2022-07-31T18:09:38.718Z,101383.72
2022-07-31T18:12:09.859Z,101375.63
2022-07-31T18:14:40.921Z,101372.81
2022-07-31T18:17:09.312Z,101377.47
2022-07-31T18:19:37.707Z,101373.91
2022-07-31T18:22:06.251Z,101371.09
2022-07-31T18:24:34.875Z,101375.63
2022-07-31T18:27:03.200Z,101379.84
2022-07-31T18:29:31.439Z,101382.25
2022-07-31T18:31:59.706Z,101379.16
2022-07-31T18:34:28.192Z,101381.97
2022-07-31T18:36:56.961Z,101378.97
2022-07-31T18:39:26.127Z,101375.31
2022-07-31T18:41:54.670Z,101379.44
2022-07-31T18:44:23.234Z,101381.75
2022-07-31T18:46:51.792Z,101379.91
2022-07-31T18:50:58.185Z,101383.94
2022-07-31T18:52:10.940Z,101383.66
2022-07-31T18:54:39.861Z,101383.78
2022-07-31T18:57:09.069Z,101373.97
2022-07-31T18:59:37.699Z,101378.84
2022-07-31T19:02:08.745Z,101376.63
2022-07-31T19:04:40.341Z,101376.69
2022-07-31T19:07:08.747Z,101383.06
2022-07-31T19:09:37.220Z,101381.34
2022-07-31T19:12:08.492Z,101384.22
2022-07-31T19:14:37.845Z,101383.47
2022-07-31T19:17:07.054Z,101393.59
2022-07-31T19:19:52.529Z,101392.13
2022-07-31T19:22:26.100Z,101391.34
2022-07-31T19:24:54.843Z,101388.75
2022-07-31T19:27:46.924Z,101393.19
2022-07-31T19:30:14.245Z,101393.41
2022-07-31T19:32:43.762Z,101389.06
2022-07-31T19:35:12.059Z,101389.72
2022-07-31T19:37:40.469Z,101385.75
2022-07-31T19:40:10.220Z,101385.63
2022-07-31T19:42:38.707Z,101385.38
2022-07-31T19:45:07.588Z,101382.81
2022-07-31T19:47:36.937Z,101386.19
2022-07-31T19:50:06.542Z,101393.28
2022-07-31T19:52:35.021Z,101392.31
2022-07-31T19:55:03.661Z,101393.75
2022-07-31T19:57:32.094Z,101390.84
2022-07-31T20:00:00.602Z,101389.03
2022-07-31T20:02:29.385Z,101376.88
2022-07-31T20:04:57.866Z,101375.47
2022-07-31T20:07:32.729Z,101374.38
2022-07-31T20:10:01.914Z,101371.16
2022-07-31T20:12:30.339Z,101373.94
2022-07-31T20:14:58.823Z,101369.94
2022-07-31T20:17:28.116Z,101373.53
2022-07-31T20:20:14.363Z,101362.69
2022-07-31T20:22:43.782Z,101363.88
2022-07-31T20:25:19.581Z,101370.34
2022-07-31T20:27:49.708Z,101355.94
2022-07-31T20:30:22.904Z,101357.66
2022-07-31T20:32:52.582Z,101359.38
2022-07-31T20:35:33.093Z,101359.59
2022-07-31T20:38:14.001Z,101361.34
2022-07-31T20:40:53.034Z,101357.81
2022-07-31T20:43:29.064Z,101355.63
2022-07-31T20:45:59.427Z,101358.13
2022-07-31T20:48:36.019Z,101359.59
2022-07-31T20:51:06.270Z,101355.34
2022-07-31T20:53:34.680Z,101353.47
2022-07-31T20:56:03.080Z,101354.13
2022-07-31T20:58:31.471Z,101344.75
2022-07-31T21:00:59.807Z,101347.53
2022-07-31T21:03:30.021Z,101354.06
2022-07-31T21:05:58.256Z,101358.22
2022-07-31T21:08:26.495Z,101352.31
2022-07-31T21:10:55.624Z,101347.25
2022-07-31T21:13:29.540Z,101339.91
2022-07-31T21:15:58.515Z,101344.50
2022-07-31T21:18:28.696Z,101338.78
2022-07-31T21:20:58.771Z,101338.16
2022-07-31T21:23:28.845Z,101333.75
2022-07-31T21:25:59.364Z,101334.09
2022-07-31T21:28:29.466Z,101334.44
2022-07-31T21:30:58.311Z,101324.97
2022-07-31T21:33:28.483Z,101333.66
2022-07-31T21:35:57.224Z,101318.16
2022-07-31T21:38:25.680Z,101319.91
2022-07-31T21:40:55.601Z,101323.28
2022-07-31T21:43:24.848Z,101316.63
2022-07-31T21:45:57.679Z,101310.09
2022-07-31T21:48:31.630Z,101302.19
2022-07-31T21:51:01.736Z,101308.28
2022-07-31T21:53:30.110Z,101310.31
2022-07-31T21:56:02.986Z,101308.00
2022-07-31T21:58:31.281Z,101299.53
2022-07-31T22:00:59.576Z,101298.91
2022-07-31T22:03:28.066Z,101297.97
2022-07-31T22:06:14.726Z,101296.09
2022-07-31T22:08:43.399Z,101293.38
2022-07-31T22:11:12.111Z,101287.50
2022-07-31T22:13:40.586Z,101283.06
2022-07-31T22:16:10.351Z,101277.31
2022-07-31T22:18:39.060Z,101273.75
2022-07-31T22:21:09.701Z,101279.22
2022-07-31T22:23:38.670Z,101268.66
2022-07-31T22:26:07.935Z,101269.94
2022-07-31T22:28:36.591Z,101262.88
2022-07-31T22:31:05.385Z,101264.50
2022-07-31T22:33:33.868Z,101264.34
2022-07-31T22:36:07.872Z,101256.88
2022-07-31T22:38:38.986Z,101260.16
2022-07-31T22:41:07.462Z,101261.19
2022-07-31T22:44:11.949Z,101256.03
2022-07-31T22:46:24.592Z,101251.28
2022-07-31T22:48:55.005Z,101242.09
2022-07-31T22:51:23.621Z,101255.03
2022-07-31T22:53:52.271Z,101247.97
2022-07-31T22:56:21.073Z,101251.56
2022-07-31T22:58:49.536Z,101244.69
2022-07-31T23:01:18.012Z,101246.41
2022-07-31T23:03:46.341Z,101251.00
2022-07-31T23:06:31.845Z,101247.66
2022-07-31T23:09:01.886Z,101243.53
2022-07-31T23:11:30.280Z,101242.22
2022-07-31T23:13:58.824Z,101246.31
2022-07-31T23:16:27.402Z,101249.88
2022-07-31T23:18:55.948Z,101244.06
2022-07-31T23:21:25.352Z,101244.81
2022-07-31T23:23:53.703Z,101246.34
2022-07-31T23:26:25.305Z,101235.13
2022-07-31T23:28:57.660Z,101232.41
2022-07-31T23:31:26.274Z,101238.72
2022-07-31T23:33:54.782Z,101237.50
2022-07-31T23:36:23.561Z,101240.56
2022-07-31T23:38:52.181Z,101246.91
2022-07-31T23:41:40.526Z,101243.34
2022-07-31T23:44:10.591Z,101240.00
2022-07-31T23:46:40.316Z,101237.06
2022-07-31T23:49:10.102Z,101238.03
2022-07-31T23:51:38.665Z,101233.47
2022-07-31T23:54:07.061Z,101235.50
2022-07-31T23:56:36.108Z,101237.00
2022-07-31T23:59:04.744Z,101237.25
